createdAt,value
2023-02-09T00:00:41.011Z,28.70
2023-02-09T00:01:41.035Z,27.60
2023-02-09T00:02:41.000Z,27.50
2023-02-09T00:03:41.009Z,27.20
2023-02-09T00:04:40.956Z,29.20
2023-02-09T00:05:41.011Z,30.10
2023-02-09T00:06:41.030Z,27.60
2023-02-09T00:07:40.940Z,26.00
2023-02-09T00:08:40.907Z,27.80
2023-02-09T00:09:40.903Z,28.70
2023-02-09T00:10:40.880Z,29.80
2023-02-09T00:11:40.871Z,31.00
2023-02-09T00:12:40.864Z,29.00
2023-02-09T00:13:40.846Z,26.80
2023-02-09T00:14:40.862Z,29.60
2023-02-09T00:15:40.828Z,27.70
2023-02-09T00:16:40.875Z,28.70
2023-02-09T00:17:40.832Z,27.50
2023-02-09T00:18:40.788Z,31.40
2023-02-09T00:19:40.788Z,29.20
2023-02-09T00:20:40.817Z,29.80
2023-02-09T00:21:40.754Z,29.40
2023-02-09T00:22:40.745Z,30.60
2023-02-09T00:23:40.760Z,29.40
2023-02-09T00:24:40.717Z,30.10
2023-02-09T00:25:40.704Z,28.90
2023-02-09T00:26:40.701Z,27.60
2023-02-09T00:27:40.681Z,37.80
2023-02-09T00:28:40.667Z,30.20
2023-02-09T00:29:40.664Z,31.40
2023-02-09T00:30:40.662Z,31.90
2023-02-09T00:31:40.699Z,31.70
2023-02-09T00:32:40.624Z,32.30
2023-02-09T00:33:40.616Z,31.50
2023-02-09T00:34:40.598Z,32.10
2023-02-09T00:35:40.599Z,32.40
2023-02-09T00:36:40.569Z,29.80
2023-02-09T00:37:40.560Z,29.90
2023-02-09T00:38:40.560Z,30.00
2023-02-09T00:39:40.542Z,30.20
2023-02-09T00:40:40.523Z,30.50
2023-02-09T00:41:40.540Z,31.10
2023-02-09T00:42:40.487Z,36.00
2023-02-09T00:43:40.493Z,31.00
2023-02-09T00:44:40.497Z,28.40
2023-02-09T00:45:40.499Z,34.30
2023-02-09T00:46:40.436Z,28.30
2023-02-09T00:47:40.453Z,31.80
2023-02-09T00:48:40.442Z,28.70
2023-02-09T00:49:40.415Z,29.10
2023-02-09T00:50:40.412Z,32.30
2023-02-09T00:51:40.384Z,31.10
2023-02-09T00:52:40.391Z,28.10
2023-02-09T00:53:40.371Z,31.90
2023-02-09T00:54:40.344Z,32.10
2023-02-09T00:55:40.332Z,34.60
2023-02-09T00:56:41.313Z,31.30
2023-02-09T00:57:40.303Z,30.70
2023-02-09T00:58:40.322Z,32.90
2023-02-09T00:59:40.302Z,36.90
2023-02-09T01:00:40.271Z,36.00
2023-02-09T01:01:40.257Z,39.10
2023-02-09T01:02:40.255Z,42.10
2023-02-09T01:03:40.242Z,38.90
2023-02-09T01:04:40.259Z,39.70
2023-02-09T01:05:40.284Z,37.10
2023-02-09T01:06:40.203Z,39.60
2023-02-09T01:07:40.207Z,41.10
2023-02-09T01:08:40.185Z,42.50
2023-02-09T01:09:40.161Z,43.20
2023-02-09T01:10:40.159Z,44.20
2023-02-09T01:11:40.139Z,43.60
2023-02-09T01:12:40.119Z,46.20
2023-02-09T01:13:40.107Z,42.60
2023-02-09T01:14:40.162Z,40.10
2023-02-09T01:15:40.093Z,36.60
2023-02-09T01:16:40.144Z,33.70
2023-02-09T01:17:40.068Z,39.50
2023-02-09T01:18:40.047Z,44.70
2023-02-09T01:19:40.026Z,38.10
2023-02-09T01:20:40.045Z,39.10
2023-02-09T01:21:40.022Z,38.10
2023-02-09T01:22:39.980Z,37.40
2023-02-09T01:23:39.971Z,38.00
2023-02-09T01:24:39.959Z,38.80
2023-02-09T01:25:39.967Z,37.60
2023-02-09T01:26:39.937Z,45.50
2023-02-09T01:27:39.928Z,49.10
2023-02-09T01:28:39.926Z,38.30
2023-02-09T01:29:39.923Z,35.70
2023-02-09T01:30:40.032Z,37.00
2023-02-09T01:31:39.952Z,36.70
2023-02-09T01:32:39.864Z,39.40
2023-02-09T01:33:39.853Z,40.20
2023-02-09T01:34:39.831Z,48.10
2023-02-09T01:35:39.869Z,44.10
2023-02-09T01:36:39.820Z,41.80
2023-02-09T01:37:39.813Z,34.10
2023-02-09T01:38:39.788Z,34.20
2023-02-09T01:39:39.778Z,38.30
2023-02-09T01:40:39.769Z,39.10
2023-02-09T01:41:39.766Z,36.40
2023-02-09T01:42:39.743Z,41.90
2023-02-09T01:43:39.724Z,34.80
2023-02-09T01:44:39.708Z,37.80
2023-02-09T01:45:39.711Z,34.90
2023-02-09T01:46:39.697Z,33.70
2023-02-09T01:47:39.708Z,38.80
2023-02-09T01:48:39.664Z,35.30
2023-02-09T01:49:39.662Z,35.30
2023-02-09T01:50:39.655Z,37.20
2023-02-09T01:51:39.635Z,39.80
2023-02-09T01:52:39.616Z,43.60
2023-02-09T01:53:39.607Z,38.40
2023-02-09T01:54:39.601Z,40.30
2023-02-09T01:55:39.616Z,40.00
2023-02-09T01:56:39.586Z,39.90
2023-02-09T01:57:39.580Z,39.90
2023-02-09T01:58:39.556Z,40.30
2023-02-09T01:59:39.530Z,36.90
2023-02-09T02:00:39.527Z,38.90
2023-02-09T02:01:39.598Z,40.60
2023-02-09T02:02:39.558Z,36.90
2023-02-09T02:03:39.476Z,38.90
2023-02-09T02:04:39.478Z,39.80
2023-02-09T02:05:39.455Z,39.30
2023-02-09T02:06:39.451Z,35.60
2023-02-09T02:07:39.449Z,41.30
2023-02-09T02:08:39.418Z,36.90
2023-02-09T02:09:39.424Z,34.20
2023-02-09T02:10:39.396Z,33.30
2023-02-09T02:11:39.385Z,38.30
2023-02-09T02:12:39.407Z,35.50
2023-02-09T02:13:39.357Z,35.60
2023-02-09T02:14:39.397Z,32.50
2023-02-09T02:15:39.433Z,36.30
2023-02-09T02:16:39.309Z,33.70
2023-02-09T02:17:39.318Z,38.40
2023-02-09T02:18:39.308Z,37.30
2023-02-09T02:19:39.286Z,37.60
2023-02-09T02:20:39.276Z,34.30
2023-02-09T02:21:39.251Z,37.20
2023-02-09T02:22:39.271Z,33.40
2023-02-09T02:23:39.226Z,36.40
2023-02-09T02:24:39.262Z,36.80
2023-02-09T02:25:39.220Z,34.90
2023-02-09T02:26:39.199Z,36.80
2023-02-09T02:27:39.215Z,36.70
2023-02-09T02:28:39.168Z,36.20
2023-02-09T02:29:39.150Z,38.10
2023-02-09T02:30:39.241Z,31.90
2023-02-09T02:31:39.155Z,31.70
2023-02-09T02:32:39.109Z,33.80
2023-02-09T02:33:39.127Z,32.10
2023-02-09T02:34:39.100Z,31.90
2023-02-09T02:35:39.088Z,32.90
2023-02-09T02:36:39.078Z,33.00
2023-02-09T02:37:39.066Z,34.40
2023-02-09T02:38:39.117Z,41.70
2023-02-09T02:39:39.093Z,41.70
2023-02-09T02:40:39.025Z,38.80
2023-02-09T02:41:39.013Z,31.40
2023-02-09T02:42:38.987Z,29.20
2023-02-09T02:43:38.982Z,30.00
2023-02-09T02:44:38.983Z,32.80
2023-02-09T02:45:38.951Z,28.00
2023-02-09T02:46:39.026Z,28.80
2023-02-09T02:47:38.961Z,33.80
2023-02-09T02:48:38.935Z,31.10
2023-02-09T02:49:38.935Z,30.30
2023-02-09T02:50:38.945Z,32.20
2023-02-09T02:51:38.893Z,33.50
2023-02-09T02:52:38.903Z,32.20
2023-02-09T02:53:38.865Z,32.20
2023-02-09T02:54:38.866Z,32.00
2023-02-09T02:55:38.834Z,31.20
2023-02-09T02:56:38.845Z,33.70
2023-02-09T02:57:38.810Z,34.00
2023-02-09T02:58:38.807Z,33.90
2023-02-09T02:59:38.838Z,35.40
2023-02-09T03:00:38.798Z,36.60
2023-02-09T03:01:38.820Z,35.80
2023-02-09T03:02:38.770Z,36.80
2023-02-09T03:03:38.740Z,36.50
2023-02-09T03:04:38.743Z,37.20
2023-02-09T03:05:38.824Z,32.10
2023-02-09T03:06:38.702Z,35.70
2023-02-09T03:07:38.710Z,35.80
2023-02-09T03:08:38.675Z,31.40
2023-02-09T03:09:38.708Z,38.50
2023-02-09T03:10:38.675Z,33.60
2023-02-09T03:11:38.646Z,33.10
2023-02-09T03:12:38.624Z,34.90
2023-02-09T03:13:38.645Z,32.80
2023-02-09T03:14:38.603Z,33.60
2023-02-09T03:15:38.592Z,32.50
2023-02-09T03:16:38.588Z,29.90
2023-02-09T03:17:38.603Z,32.40
2023-02-09T03:18:38.556Z,31.50
2023-02-09T03:19:38.569Z,31.70
2023-02-09T03:20:38.535Z,29.90
2023-02-09T03:21:38.514Z,33.00
2023-02-09T03:22:38.518Z,29.30
2023-02-09T03:23:38.500Z,28.80
2023-02-09T03:24:38.652Z,31.90
2023-02-09T03:25:38.492Z,32.10
2023-02-09T03:26:38.450Z,34.20
2023-02-09T03:27:38.441Z,33.80
2023-02-09T03:28:38.446Z,35.60
2023-02-09T03:29:38.433Z,34.90
2023-02-09T03:30:38.450Z,35.70
2023-02-09T03:31:38.469Z,32.50
2023-02-09T03:32:38.393Z,33.10
2023-02-09T03:33:38.375Z,35.50
2023-02-09T03:34:38.357Z,31.00
2023-02-09T03:35:38.339Z,34.40
2023-02-09T03:36:38.348Z,37.10
2023-02-09T03:37:38.329Z,40.50
2023-02-09T03:38:38.324Z,35.50
2023-02-09T03:39:38.307Z,44.00
2023-02-09T03:40:38.292Z,42.40
2023-02-09T03:41:38.294Z,38.60
2023-02-09T03:42:38.270Z,41.50
2023-02-09T03:43:38.243Z,38.50
2023-02-09T03:44:38.292Z,39.00
2023-02-09T03:45:38.222Z,37.20
2023-02-09T03:46:38.289Z,38.40
2023-02-09T03:47:38.272Z,39.20
2023-02-09T03:48:38.202Z,38.30
2023-02-09T03:49:38.204Z,42.60
2023-02-09T03:50:38.195Z,43.40
2023-02-09T03:51:38.156Z,36.30
2023-02-09T03:52:38.205Z,38.20
2023-02-09T03:53:38.191Z,40.90
2023-02-09T03:54:38.105Z,36.10
2023-02-09T03:55:38.092Z,35.30
2023-02-09T03:56:38.098Z,36.10
2023-02-09T03:57:38.133Z,38.50
2023-02-09T03:58:38.060Z,36.80
2023-02-09T03:59:38.093Z,33.90
2023-02-09T04:00:38.078Z,36.60
2023-02-09T04:01:38.051Z,34.40
2023-02-09T04:02:38.074Z,41.90
2023-02-09T04:03:38.000Z,34.60
2023-02-09T04:04:37.980Z,36.50
2023-02-09T04:05:37.976Z,36.90
2023-02-09T04:06:37.977Z,35.50
2023-02-09T04:07:37.975Z,31.90
2023-02-09T04:08:37.962Z,34.20
2023-02-09T04:09:37.946Z,33.50
2023-02-09T04:10:37.913Z,38.30
2023-02-09T04:11:44.442Z,33.00
2023-02-09T04:12:37.896Z,38.50
2023-02-09T04:13:37.872Z,37.10
2023-02-09T04:14:37.871Z,40.00
2023-02-09T04:15:37.829Z,36.20
2023-02-09T04:16:37.866Z,36.70
2023-02-09T04:17:37.818Z,35.90
2023-02-09T04:18:37.796Z,30.00
2023-02-09T04:19:37.789Z,37.30
2023-02-09T04:20:37.785Z,35.80
2023-02-09T04:21:37.771Z,36.20
2023-02-09T04:22:37.761Z,34.40
2023-02-09T04:23:37.763Z,32.30
2023-02-09T04:24:37.733Z,31.40
2023-02-09T04:25:37.723Z,38.60
2023-02-09T04:26:37.701Z,43.30
2023-02-09T04:27:37.735Z,34.80
2023-02-09T04:28:37.678Z,36.20
2023-02-09T04:29:37.672Z,38.00
2023-02-09T04:30:37.731Z,37.10
2023-02-09T04:31:37.687Z,32.70
2023-02-09T04:32:37.644Z,35.50
2023-02-09T04:33:37.645Z,34.00
2023-02-09T04:34:37.630Z,34.70
2023-02-09T04:35:37.642Z,34.30
2023-02-09T04:36:37.586Z,36.40
2023-02-09T04:37:37.578Z,34.30
2023-02-09T04:38:37.606Z,33.50
2023-02-09T04:39:37.556Z,38.60
2023-02-09T04:40:37.555Z,33.00
2023-02-09T04:41:37.519Z,38.00
2023-02-09T04:42:37.531Z,34.30
2023-02-09T04:43:37.490Z,36.80
2023-02-09T04:44:37.491Z,33.10
2023-02-09T04:45:37.576Z,35.30
2023-02-09T04:46:37.458Z,36.50
2023-02-09T04:47:37.467Z,36.10
2023-02-09T04:48:37.439Z,38.90
2023-02-09T04:49:37.440Z,34.60
2023-02-09T04:50:37.406Z,37.20
2023-02-09T04:51:37.393Z,37.70
2023-02-09T04:52:37.395Z,37.50
2023-02-09T04:53:37.416Z,34.60
2023-02-09T04:54:37.372Z,38.10
2023-02-09T04:55:37.347Z,35.90
2023-02-09T04:56:38.798Z,33.80
2023-02-09T04:57:37.343Z,35.60
2023-02-09T04:58:37.361Z,38.30
2023-02-09T04:59:37.312Z,34.20
2023-02-09T05:00:37.298Z,39.10
2023-02-09T05:01:37.278Z,38.50
2023-02-09T05:02:37.271Z,34.10
2023-02-09T05:03:37.311Z,37.70
2023-02-09T05:04:37.242Z,37.00
2023-02-09T05:05:37.253Z,35.40
2023-02-09T05:06:37.218Z,33.70
2023-02-09T05:07:37.217Z,34.50
2023-02-09T05:08:37.219Z,31.80
2023-02-09T05:09:37.181Z,34.20
2023-02-09T05:10:37.175Z,39.90
2023-02-09T05:11:37.190Z,37.20
2023-02-09T05:12:37.142Z,40.50
2023-02-09T05:13:37.136Z,37.10
2023-02-09T05:14:37.133Z,37.90
2023-02-09T05:15:37.104Z,35.80
2023-02-09T05:16:39.206Z,35.70
2023-02-09T05:17:37.112Z,40.00
2023-02-09T05:18:37.084Z,39.40
2023-02-09T05:19:37.080Z,39.70
2023-02-09T05:20:37.060Z,34.50
2023-02-09T05:21:37.021Z,35.90
2023-02-09T05:22:37.023Z,36.80
2023-02-09T05:23:37.018Z,36.20
2023-02-09T05:24:37.029Z,38.70
2023-02-09T05:25:37.023Z,36.10
2023-02-09T05:26:36.977Z,38.20
2023-02-09T05:27:36.949Z,33.80
2023-02-09T05:28:36.964Z,36.40
2023-02-09T05:29:36.965Z,37.10
2023-02-09T05:30:36.943Z,43.40
2023-02-09T05:31:37.017Z,47.30
2023-02-09T05:32:36.890Z,38.90
2023-02-09T05:33:36.876Z,41.30
2023-02-09T05:34:36.870Z,42.50
2023-02-09T05:35:36.904Z,34.50
2023-02-09T05:36:36.860Z,42.30
2023-02-09T05:37:36.835Z,35.80
2023-02-09T05:38:36.846Z,35.60
2023-02-09T05:39:36.826Z,41.20
2023-02-09T05:40:36.825Z,38.40
2023-02-09T05:41:36.781Z,36.90
2023-02-09T05:42:36.816Z,40.60
2023-02-09T05:43:36.749Z,36.00
2023-02-09T05:44:36.751Z,38.40
2023-02-09T05:45:36.766Z,43.60
2023-02-09T05:46:36.718Z,36.10
2023-02-09T05:47:36.703Z,39.70
2023-02-09T05:48:36.702Z,35.80
2023-02-09T05:49:36.687Z,43.60
2023-02-09T05:50:36.694Z,35.20
2023-02-09T05:51:36.651Z,35.20
2023-02-09T05:52:36.661Z,40.20
2023-02-09T05:53:36.690Z,35.10
2023-02-09T05:54:36.640Z,35.50
2023-02-09T05:55:36.626Z,37.80
2023-02-09T05:56:36.593Z,37.90
2023-02-09T05:57:36.608Z,39.10
2023-02-09T05:58:36.600Z,39.10
2023-02-09T05:59:36.554Z,34.80
2023-02-09T06:00:36.559Z,36.10
2023-02-09T06:01:36.542Z,38.00
2023-02-09T06:02:36.604Z,34.30
2023-02-09T06:03:36.582Z,38.10
2023-02-09T06:04:36.493Z,35.30
2023-02-09T06:05:36.508Z,36.00
2023-02-09T06:06:36.493Z,40.60
2023-02-09T06:07:36.462Z,40.30
2023-02-09T06:08:36.449Z,40.50
2023-02-09T06:09:36.439Z,39.10
2023-02-09T06:10:36.423Z,37.90
2023-02-09T06:11:36.412Z,47.50
2023-02-09T06:12:36.410Z,44.30
2023-02-09T06:13:36.384Z,45.60
2023-02-09T06:14:36.370Z,41.60
2023-02-09T06:15:36.456Z,37.20
2023-02-09T06:16:36.354Z,37.80
2023-02-09T06:17:36.326Z,36.50
2023-02-09T06:18:36.352Z,35.10
2023-02-09T06:19:36.313Z,39.90
2023-02-09T06:20:36.296Z,40.20
2023-02-09T06:21:36.291Z,38.10
2023-02-09T06:22:36.277Z,38.00
2023-02-09T06:23:36.265Z,36.30
2023-02-09T06:24:36.295Z,37.60
2023-02-09T06:25:36.233Z,38.10
2023-02-09T06:26:36.289Z,35.40
2023-02-09T06:27:36.203Z,39.80
2023-02-09T06:28:36.196Z,40.70
2023-02-09T06:29:36.181Z,38.40
2023-02-09T06:30:36.181Z,36.80
2023-02-09T06:31:36.330Z,35.80
2023-02-09T06:32:36.162Z,37.60
2023-02-09T06:33:36.137Z,36.30
2023-02-09T06:34:36.126Z,35.50
2023-02-09T06:35:36.128Z,34.10
2023-02-09T06:36:36.136Z,35.10
2023-02-09T06:37:36.090Z,34.70
2023-02-09T06:38:36.102Z,31.50
2023-02-09T06:39:36.071Z,32.70
2023-02-09T06:40:36.053Z,32.00
2023-02-09T06:41:36.032Z,28.50
2023-02-09T06:42:36.053Z,31.10
2023-02-09T06:43:36.014Z,30.90
2023-02-09T06:44:36.009Z,30.10
2023-02-09T06:45:36.015Z,28.00
2023-02-09T06:46:36.055Z,29.00
2023-02-09T06:47:36.017Z,28.90
2023-02-09T06:48:35.982Z,30.60
2023-02-09T06:49:35.985Z,26.90
2023-02-09T06:50:35.938Z,27.80
2023-02-09T06:51:35.907Z,26.50
2023-02-09T06:52:35.906Z,27.50
2023-02-09T06:53:35.902Z,25.40
2023-02-09T06:54:35.882Z,26.90
2023-02-09T06:55:35.870Z,29.30
2023-02-09T06:56:35.863Z,25.10
2023-02-09T06:57:35.857Z,25.20
2023-02-09T06:58:35.828Z,25.10
2023-02-09T06:59:35.830Z,22.90
2023-02-09T07:00:35.827Z,25.30
2023-02-09T07:01:35.836Z,28.70
2023-02-09T07:02:35.885Z,27.50
2023-02-09T07:03:35.787Z,23.90
2023-02-09T07:04:35.744Z,27.30
2023-02-09T07:05:35.750Z,26.00
2023-02-09T07:06:35.747Z,23.60
2023-02-09T07:07:35.712Z,26.70
2023-02-09T07:08:35.755Z,25.30
2023-02-09T07:09:35.687Z,26.40
2023-02-09T07:10:35.702Z,23.70
2023-02-09T07:11:35.661Z,23.30
2023-02-09T07:12:35.657Z,23.40
2023-02-09T07:13:35.648Z,21.70
2023-02-09T07:14:35.631Z,23.20
2023-02-09T07:15:35.649Z,23.40
2023-02-09T07:16:35.605Z,24.70
2023-02-09T07:17:35.622Z,23.70
2023-02-09T07:18:35.615Z,25.80
2023-02-09T07:19:35.592Z,29.10
2023-02-09T07:20:35.563Z,26.80
2023-02-09T07:21:35.527Z,28.20
2023-02-09T07:22:35.550Z,23.50
2023-02-09T07:23:35.542Z,26.20
2023-02-09T07:24:35.495Z,25.30
2023-02-09T07:25:35.482Z,25.70
2023-02-09T07:26:35.502Z,29.40
2023-02-09T07:27:35.456Z,25.90
2023-02-09T07:28:35.561Z,25.40
2023-02-09T07:29:35.468Z,25.30
2023-02-09T07:30:35.476Z,24.60
2023-02-09T07:31:35.537Z,23.20
2023-02-09T07:32:35.395Z,24.70
2023-02-09T07:33:35.403Z,24.70
2023-02-09T07:34:35.388Z,22.50
2023-02-09T07:35:35.354Z,27.00
2023-02-09T07:36:35.350Z,28.30
2023-02-09T07:37:35.362Z,26.20
2023-02-09T07:38:35.318Z,24.40
2023-02-09T07:39:35.319Z,24.20
2023-02-09T07:40:35.300Z,25.10
2023-02-09T07:41:35.276Z,32.10
2023-02-09T07:42:35.267Z,23.50
2023-02-09T07:43:35.256Z,24.20
2023-02-09T07:44:35.266Z,25.40
2023-02-09T07:45:35.225Z,21.10
2023-02-09T07:46:35.221Z,20.90
2023-02-09T07:47:35.230Z,24.50
2023-02-09T07:48:35.208Z,21.40
2023-02-09T07:49:35.199Z,23.90
2023-02-09T07:50:35.162Z,19.40
2023-02-09T07:51:35.159Z,22.70
2023-02-09T07:52:35.139Z,21.50
2023-02-09T07:53:35.145Z,19.80
2023-02-09T07:54:35.115Z,19.10
2023-02-09T07:55:35.142Z,19.40
2023-02-09T07:56:35.092Z,21.10
2023-02-09T07:57:35.110Z,18.30
2023-02-09T07:58:35.123Z,16.60
2023-02-09T07:59:35.059Z,19.80
2023-02-09T08:00:35.086Z,19.90
2023-02-09T08:01:35.052Z,18.20
2023-02-09T08:02:35.031Z,17.60
2023-02-09T08:03:35.082Z,16.50
2023-02-09T08:04:35.013Z,20.80
2023-02-09T08:05:34.992Z,17.80
2023-02-09T08:06:42.008Z,16.40
2023-02-09T08:07:34.967Z,15.60
2023-02-09T08:08:34.953Z,16.20
2023-02-09T08:09:35.376Z,16.80
2023-02-09T08:10:34.934Z,17.50
2023-02-09T08:11:34.914Z,14.10
2023-02-09T08:12:34.916Z,14.30
2023-02-09T08:13:34.925Z,13.00
2023-02-09T08:14:34.871Z,16.70
2023-02-09T08:15:34.872Z,11.80
2023-02-09T08:16:34.939Z,14.60
2023-02-09T08:17:34.844Z,14.80
2023-02-09T08:18:34.819Z,20.00
2023-02-09T08:19:34.834Z,16.50
2023-02-09T08:20:34.812Z,14.20
2023-02-09T08:21:34.816Z,15.70
2023-02-09T08:22:34.774Z,17.80
2023-02-09T08:23:34.782Z,23.80
2023-02-09T08:24:34.746Z,16.30
2023-02-09T08:25:34.750Z,14.50
2023-02-09T08:26:34.737Z,12.30
2023-02-09T08:27:34.715Z,14.00
2023-02-09T08:28:43.534Z,12.00
2023-02-09T08:29:34.699Z,14.10
2023-02-09T08:30:34.685Z,15.60
2023-02-09T08:31:34.737Z,11.40
2023-02-09T08:32:34.646Z,10.90
2023-02-09T08:33:34.646Z,15.90
2023-02-09T08:34:34.693Z,14.10
2023-02-09T08:35:34.625Z,13.10
2023-02-09T08:36:34.634Z,22.40
2023-02-09T08:37:34.620Z,18.10
2023-02-09T08:38:34.582Z,14.30
2023-02-09T08:39:34.583Z,18.90
2023-02-09T08:40:34.571Z,18.00
2023-02-09T08:41:34.570Z,11.60
2023-02-09T08:42:34.545Z,15.40
2023-02-09T08:43:34.550Z,17.20
2023-02-09T08:44:34.516Z,14.60
2023-02-09T08:45:34.627Z,17.10
2023-02-09T08:46:34.662Z,12.30
2023-02-09T08:47:34.487Z,13.70
2023-02-09T08:48:35.806Z,15.90
2023-02-09T08:49:34.480Z,12.80
2023-02-09T08:50:34.484Z,15.60
2023-02-09T08:51:34.451Z,18.20
2023-02-09T08:52:34.472Z,14.50
2023-02-09T08:53:34.401Z,19.80
2023-02-09T08:54:34.394Z,15.60
2023-02-09T08:55:34.378Z,14.80
2023-02-09T08:56:34.372Z,11.90
2023-02-09T08:57:43.385Z,11.30
2023-02-09T08:58:34.346Z,19.20
2023-02-09T08:59:34.341Z,17.10
2023-02-09T09:00:34.336Z,18.70
2023-02-09T09:01:34.323Z,20.50
2023-02-09T09:02:34.282Z,17.20
2023-02-09T09:03:34.299Z,13.70
2023-02-09T09:04:34.265Z,16.10
2023-02-09T09:05:34.256Z,23.30
2023-02-09T09:06:34.232Z,14.80
2023-02-09T09:07:34.228Z,22.50
2023-02-09T09:08:34.229Z,18.30
2023-02-09T09:09:34.229Z,12.70
2023-02-09T09:10:34.193Z,11.90
2023-02-09T09:11:34.188Z,12.20
2023-02-09T09:12:34.223Z,17.90
2023-02-09T09:13:34.144Z,17.40
2023-02-09T09:14:34.133Z,16.80
2023-02-09T09:15:34.126Z,19.00
2023-02-09T09:16:34.217Z,14.40
2023-02-09T09:17:34.112Z,19.90
2023-02-09T09:18:34.090Z,18.20
2023-02-09T09:19:34.079Z,15.80
2023-02-09T09:20:34.069Z,16.30
2023-02-09T09:21:34.049Z,17.90
2023-02-09T09:22:34.058Z,13.40
2023-02-09T09:23:34.026Z,11.50
2023-02-09T09:24:34.047Z,11.80
2023-02-09T09:25:34.020Z,14.20
2023-02-09T09:26:34.014Z,14.50
2023-02-09T09:27:33.982Z,18.40
2023-02-09T09:28:34.040Z,19.30
2023-02-09T09:29:33.951Z,20.00
2023-02-09T09:30:33.980Z,16.00
2023-02-09T09:31:34.086Z,10.60
2023-02-09T09:32:34.082Z,9.20
2023-02-09T09:33:33.899Z,12.30
2023-02-09T09:34:33.889Z,19.20
2023-02-09T09:35:33.892Z,13.40
2023-02-09T09:36:33.875Z,11.90
2023-02-09T09:37:33.906Z,17.30
2023-02-09T09:38:33.902Z,13.90
2023-02-09T09:39:33.844Z,20.30
2023-02-09T09:40:33.809Z,18.80
2023-02-09T09:41:33.801Z,20.20
2023-02-09T09:42:33.859Z,16.00
2023-02-09T09:43:33.829Z,19.90
2023-02-09T09:44:33.800Z,13.90
2023-02-09T09:45:33.758Z,16.40
2023-02-09T09:46:33.862Z,22.70
2023-02-09T09:47:33.787Z,29.00
2023-02-09T09:48:33.732Z,19.70
2023-02-09T09:49:33.713Z,19.30
2023-02-09T09:50:33.700Z,22.70
2023-02-09T09:51:33.689Z,27.40
2023-02-09T09:52:33.669Z,29.50
2023-02-09T09:53:33.652Z,22.70
2023-02-09T09:54:33.657Z,17.50
2023-02-09T09:55:33.640Z,12.90
2023-02-09T09:56:33.607Z,14.90
2023-02-09T09:57:33.612Z,20.90
2023-02-09T09:58:33.599Z,16.50
2023-02-09T09:59:33.587Z,23.10
2023-02-09T10:00:33.564Z,15.00
2023-02-09T10:01:33.593Z,13.40
2023-02-09T10:02:33.554Z,13.50
2023-02-09T10:03:33.565Z,13.90
2023-02-09T10:04:33.571Z,25.20
2023-02-09T10:05:33.508Z,29.80
2023-02-09T10:06:33.480Z,17.50
2023-02-09T10:07:33.481Z,10.90
2023-02-09T10:08:33.498Z,19.60
2023-02-09T10:09:33.457Z,17.70
2023-02-09T10:10:33.453Z,17.70
2023-02-09T10:11:33.436Z,17.00
2023-02-09T10:12:33.422Z,13.60
2023-02-09T10:13:33.422Z,14.70
2023-02-09T10:14:33.400Z,24.10
2023-02-09T10:15:33.388Z,18.60
2023-02-09T10:16:33.464Z,15.30
2023-02-09T10:17:33.379Z,17.80
2023-02-09T10:18:33.347Z,19.30
2023-02-09T10:19:33.388Z,17.30
2023-02-09T10:20:33.310Z,20.30
2023-02-09T10:21:33.305Z,20.30
2023-02-09T10:22:33.291Z,19.00
2023-02-09T10:23:33.294Z,15.70
2023-02-09T10:24:33.259Z,14.20
2023-02-09T10:25:33.248Z,13.50
2023-02-09T10:26:33.249Z,19.40
2023-02-09T10:27:33.239Z,12.60
2023-02-09T10:28:33.315Z,14.10
2023-02-09T10:29:33.206Z,15.10
2023-02-09T10:30:33.267Z,15.40
2023-02-09T10:31:33.321Z,17.60
2023-02-09T10:32:33.166Z,16.30
2023-02-09T10:33:33.155Z,14.20
2023-02-09T10:34:33.128Z,18.60
2023-02-09T10:35:33.127Z,13.20
2023-02-09T10:36:33.116Z,23.00
2023-02-09T10:37:33.095Z,14.40
2023-02-09T10:38:33.553Z,11.60
2023-02-09T10:39:33.085Z,22.70
2023-02-09T10:40:33.190Z,18.40
2023-02-09T10:41:33.077Z,15.50
2023-02-09T10:42:33.027Z,12.00
2023-02-09T10:43:33.017Z,13.10
2023-02-09T10:44:33.023Z,14.10
2023-02-09T10:45:33.012Z,12.40
2023-02-09T10:46:33.038Z,12.90
2023-02-09T10:47:33.008Z,10.30
2023-02-09T10:48:33.077Z,13.30
2023-02-09T10:49:32.958Z,14.50
2023-02-09T10:50:32.939Z,18.80
2023-02-09T10:51:32.918Z,13.00
2023-02-09T10:52:32.891Z,16.80
2023-02-09T10:53:32.893Z,17.30
2023-02-09T10:54:32.894Z,11.00
2023-02-09T10:55:32.866Z,13.50
2023-02-09T10:56:32.872Z,9.90
2023-02-09T10:57:32.923Z,18.80
2023-02-09T10:58:32.819Z,19.50
2023-02-09T10:59:32.838Z,13.40
2023-02-09T11:00:32.864Z,18.00
2023-02-09T11:01:32.829Z,10.50
2023-02-09T11:02:32.799Z,11.40
2023-02-09T11:03:32.770Z,12.80
2023-02-09T11:04:32.772Z,15.20
2023-02-09T11:05:32.745Z,20.20
2023-02-09T11:06:32.828Z,16.80
2023-02-09T11:07:32.728Z,15.20
2023-02-09T11:08:32.728Z,13.40
2023-02-09T11:09:32.726Z,22.60
2023-02-09T11:10:32.669Z,19.80
2023-02-09T11:11:32.715Z,13.40
2023-02-09T11:12:32.731Z,14.00
2023-02-09T11:13:32.686Z,15.20
2023-02-09T11:14:32.651Z,13.80
2023-02-09T11:15:32.723Z,12.40
2023-02-09T11:16:32.620Z,10.90
2023-02-09T11:17:32.592Z,10.70
2023-02-09T11:18:32.581Z,12.10
2023-02-09T11:19:32.595Z,19.70
2023-02-09T11:20:32.627Z,15.50
2023-02-09T11:21:32.544Z,15.30
2023-02-09T11:22:32.544Z,11.70
2023-02-09T11:23:32.570Z,12.80
2023-02-09T11:24:32.498Z,12.10
2023-02-09T11:25:32.526Z,11.70
2023-02-09T11:26:32.511Z,13.60
2023-02-09T11:27:32.482Z,17.40
2023-02-09T11:28:32.603Z,27.10
2023-02-09T11:29:32.464Z,36.40
2023-02-09T11:30:32.602Z,18.80
2023-02-09T11:31:32.582Z,16.80
2023-02-09T11:32:32.403Z,17.70
2023-02-09T11:33:32.385Z,19.50
2023-02-09T11:34:32.367Z,25.10
2023-02-09T11:35:32.366Z,34.90
2023-02-09T11:36:32.391Z,23.10
2023-02-09T11:37:32.337Z,19.40
2023-02-09T11:38:32.321Z,16.30
2023-02-09T11:39:32.311Z,20.80
2023-02-09T11:40:32.297Z,17.30
2023-02-09T11:41:32.297Z,22.40
2023-02-09T11:42:32.266Z,21.50
2023-02-09T11:43:32.268Z,20.40
2023-02-09T11:44:32.240Z,21.40
2023-02-09T11:45:32.233Z,18.30
2023-02-09T11:46:32.273Z,19.00
2023-02-09T11:47:32.213Z,18.60
2023-02-09T11:48:32.199Z,20.60
2023-02-09T11:49:32.187Z,18.50
2023-02-09T11:50:32.184Z,20.60
2023-02-09T11:51:32.192Z,18.70
2023-02-09T11:52:32.148Z,21.00
2023-02-09T11:53:32.133Z,18.40
2023-02-09T11:54:32.131Z,16.20
2023-02-09T11:55:32.110Z,16.10
2023-02-09T11:56:32.104Z,21.50
2023-02-09T11:57:32.100Z,17.10
2023-02-09T11:58:32.065Z,14.70
2023-02-09T11:59:32.055Z,20.40
2023-02-09T12:00:32.219Z,18.80
2023-02-09T12:01:32.062Z,20.50
2023-02-09T12:02:32.101Z,14.70
2023-02-09T12:03:32.014Z,16.30
2023-02-09T12:04:32.003Z,14.80
2023-02-09T12:05:31.996Z,19.60
2023-02-09T12:06:32.050Z,16.80
2023-02-09T12:07:33.177Z,19.30
2023-02-09T12:08:31.961Z,12.20
2023-02-09T12:09:31.920Z,16.90
2023-02-09T12:10:31.915Z,20.90
2023-02-09T12:11:31.949Z,14.30
2023-02-09T12:12:31.938Z,12.90
2023-02-09T12:13:31.873Z,13.40
2023-02-09T12:14:31.874Z,14.20
2023-02-09T12:15:31.877Z,12.90
2023-02-09T12:16:32.018Z,12.70
2023-02-09T12:17:31.823Z,18.20
2023-02-09T12:18:31.832Z,20.20
2023-02-09T12:19:31.797Z,17.60
2023-02-09T12:20:31.817Z,17.50
2023-02-09T12:21:31.796Z,17.20
2023-02-09T12:22:31.777Z,21.40
2023-02-09T12:23:31.762Z,17.00
2023-02-09T12:24:31.742Z,15.90
2023-02-09T12:25:31.717Z,20.10
2023-02-09T12:26:31.727Z,18.10
2023-02-09T12:27:31.714Z,16.40
2023-02-09T12:28:31.766Z,18.00
2023-02-09T12:29:31.693Z,17.00
2023-02-09T12:30:31.708Z,21.00
2023-02-09T12:31:31.836Z,19.90
2023-02-09T12:32:31.626Z,18.40
2023-02-09T12:33:31.629Z,19.00
2023-02-09T12:34:31.603Z,16.80
2023-02-09T12:35:31.615Z,21.40
2023-02-09T12:36:31.609Z,18.90
2023-02-09T12:37:31.566Z,20.40
2023-02-09T12:38:31.560Z,20.70
2023-02-09T12:39:31.543Z,19.30
2023-02-09T12:40:31.566Z,21.10
2023-02-09T12:41:31.526Z,17.50
2023-02-09T12:42:31.516Z,16.40
2023-02-09T12:43:31.522Z,15.60
2023-02-09T12:44:31.530Z,15.00
2023-02-09T12:45:31.510Z,16.40
2023-02-09T12:46:31.796Z,18.70
2023-02-09T12:47:31.447Z,17.60
2023-02-09T12:48:31.447Z,14.20
2023-02-09T12:49:31.427Z,16.30
2023-02-09T12:50:31.418Z,14.50
2023-02-09T12:51:31.389Z,12.80
2023-02-09T12:52:31.400Z,17.20